sensor_id;sensor_type;location;lat;lon;timestamp;pressure;altitude;pressure_sealevel;temperature;humidity
13695;BME280;6919;52.344;14.518;2023-05-10T00:00:37;100551.13;;;11.33;100.00
13695;BME280;6919;52.344;14.518;2023-05-10T00:03:06;100548.22;;;11.26;100.00
13695;BME280;6919;52.344;14.518;2023-05-10T00:05:34;100540.22;;;11.34;100.00
13695;BME280;6919;52.344;14.518;2023-05-10T00:08:03;100551.91;;;11.25;100.00
13695;BME280;6919;52.344;14.518;2023-05-10T00:10:32;100551.09;;;11.25;100.00
13695;BME280;6919;52.344;14.518;2023-05-10T00:13:01;100541.13;;;11.17;100.00
13695;BME280;6919;52.344;14.518;2023-05-10T00:15:30;100543.19;;;11.23;100.00
13695;BME280;6919;52.344;14.518;2023-05-10T00:17:58;100543.72;;;11.27;100.00
13695;BME280;6919;52.344;14.518;2023-05-10T00:20:27;100539.84;;;11.29;100.00
13695;BME280;6919;52.344;14.518;2023-05-10T00:22:55;100539.31;;;11.18;100.00
13695;BME280;6919;52.344;14.518;2023-05-10T00:25:24;100536.25;;;11.13;100.00
13695;BME280;6919;52.344;14.518;2023-05-10T00:27:52;100538.06;;;11.12;100.00
13695;BME280;6919;52.344;14.518;2023-05-10T00:30:24;100543.66;;;11.19;100.00
13695;BME280;6919;52.344;14.518;2023-05-10T00:32:52;100540.09;;;11.10;100.00
13695;BME280;6919;52.344;14.518;2023-05-10T00:35:21;100536.41;;;11.11;100.00
13695;BME280;6919;52.344;14.518;2023-05-10T00:37:49;100537.41;;;11.10;100.00
13695;BME280;6919;52.344;14.518;2023-05-10T00:40:18;100532.19;;;11.09;100.00
13695;BME280;6919;52.344;14.518;2023-05-10T00:42:46;100537.25;;;11.12;100.00
13695;BME280;6919;52.344;14.518;2023-05-10T00:45:15;100520.97;;;11.05;100.00
13695;BME280;6919;52.344;14.518;2023-05-10T00:47:45;100524.63;;;11.04;100.00
13695;BME280;6919;52.344;14.518;2023-05-10T00:50:14;100525.44;;;10.97;100.00
13695;BME280;6919;52.344;14.518;2023-05-10T00:52:43;100522.53;;;10.90;100.00
13695;BME280;6919;52.344;14.518;2023-05-10T00:55:12;100524.69;;;10.87;100.00
13695;BME280;6919;52.344;14.518;2023-05-10T00:57:41;100518.88;;;10.91;100.00
13695;BME280;6919;52.344;14.518;2023-05-10T01:00:11;100522.06;;;10.95;100.00
13695;BME280;6919;52.344;14.518;2023-05-10T01:02:46;100514.28;;;10.84;100.00
13695;BME280;6919;52.344;14.518;2023-05-10T01:05:17;100508.75;;;10.85;100.00
13695;BME280;6919;52.344;14.518;2023-05-10T01:07:45;100507.25;;;10.83;100.00
13695;BME280;6919;52.344;14.518;2023-05-10T01:10:14;100501.13;;;10.73;100.00
13695;BME280;6919;52.344;14.518;2023-05-10T01:12:45;100507.50;;;10.72;100.00
13695;BME280;6919;52.344;14.518;2023-05-10T01:15:16;100504.81;;;10.72;100.00
13695;BME280;6919;52.344;14.518;2023-05-10T01:17:48;100499.13;;;10.75;100.00
13695;BME280;6919;52.344;14.518;2023-05-10T01:20:17;100499.53;;;10.62;100.00
13695;BME280;6919;52.344;14.518;2023-05-10T01:23:22;100507.44;;;10.64;100.00
13695;BME280;6919;52.344;14.518;2023-05-10T01:26:26;100500.22;;;10.64;100.00
13695;BME280;6919;52.344;14.518;2023-05-10T01:29:24;100495.88;;;10.63;100.00
13695;BME280;6919;52.344;14.518;2023-05-10T01:32:23;100492.69;;;10.68;100.00
13695;BME280;6919;52.344;14.518;2023-05-10T01:35:03;100483.13;;;10.65;100.00
13695;BME280;6919;52.344;14.518;2023-05-10T01:37:43;100478.75;;;10.56;100.00
13695;BME280;6919;52.344;14.518;2023-05-10T01:40:21;100483.94;;;10.58;100.00
13695;BME280;6919;52.344;14.518;2023-05-10T01:42:57;100478.03;;;10.54;100.00
13695;BME280;6919;52.344;14.518;2023-05-10T01:45:36;100478.34;;;10.51;100.00
13695;BME280;6919;52.344;14.518;2023-05-10T01:48:10;100476.63;;;10.42;100.00
13695;BME280;6919;52.344;14.518;2023-05-10T01:50:43;100476.94;;;10.39;100.00
13695;BME280;6919;52.344;14.518;2023-05-10T01:53:17;100472.38;;;10.40;100.00
13695;BME280;6919;52.344;14.518;2023-05-10T01:55:50;100475.88;;;10.32;100.00
13695;BME280;6919;52.344;14.518;2023-05-10T01:58:23;100467.13;;;10.30;100.00
13695;BME280;6919;52.344;14.518;2023-05-10T02:00:54;100467.84;;;10.32;100.00
13695;BME280;6919;52.344;14.518;2023-05-10T02:03:27;100460.25;;;10.28;100.00
13695;BME280;6919;52.344;14.518;2023-05-10T02:05:57;100475.31;;;10.29;100.00
13695;BME280;6919;52.344;14.518;2023-05-10T02:08:27;100466.16;;;10.31;100.00
13695;BME280;6919;52.344;14.518;2023-05-10T02:10:57;100460.94;;;10.30;100.00
13695;BME280;6919;52.344;14.518;2023-05-10T02:13:29;100463.09;;;10.26;100.00
13695;BME280;6919;52.344;14.518;2023-05-10T02:15:59;100466.91;;;10.24;100.00
13695;BME280;6919;52.344;14.518;2023-05-10T02:18:30;100454.38;;;10.24;100.00
13695;BME280;6919;52.344;14.518;2023-05-10T02:21:02;100457.88;;;10.25;100.00
13695;BME280;6919;52.344;14.518;2023-05-10T02:23:31;100450.00;;;10.23;100.00
13695;BME280;6919;52.344;14.518;2023-05-10T02:26:01;100450.84;;;10.24;100.00
13695;BME280;6919;52.344;14.518;2023-05-10T02:28:32;100452.66;;;10.23;100.00
13695;BME280;6919;52.344;14.518;2023-05-10T02:31:02;100444.72;;;10.14;100.00
13695;BME280;6919;52.344;14.518;2023-05-10T02:33:33;100441.91;;;10.15;100.00
13695;BME280;6919;52.344;14.518;2023-05-10T02:36:03;100435.38;;;10.18;100.00
13695;BME280;6919;52.344;14.518;2023-05-10T02:38:33;100438.16;;;10.26;100.00
13695;BME280;6919;52.344;14.518;2023-05-10T02:41:07;100442.91;;;10.14;100.00
13695;BME280;6919;52.344;14.518;2023-05-10T02:43:39;100448.16;;;10.06;100.00
13695;BME280;6919;52.344;14.518;2023-05-10T02:46:08;100439.44;;;10.04;100.00
13695;BME280;6919;52.344;14.518;2023-05-10T02:48:39;100439.84;;;10.09;100.00
13695;BME280;6919;52.344;14.518;2023-05-10T02:51:09;100431.19;;;9.98;100.00
13695;BME280;6919;52.344;14.518;2023-05-10T02:53:45;100437.50;;;9.97;100.00
13695;BME280;6919;52.344;14.518;2023-05-10T02:56:23;100439.97;;;9.90;100.00
13695;BME280;6919;52.344;14.518;2023-05-10T02:58:53;100439.69;;;9.93;100.00
13695;BME280;6919;52.344;14.518;2023-05-10T03:01:21;100445.34;;;9.90;100.00
13695;BME280;6919;52.344;14.518;2023-05-10T03:03:51;100442.81;;;9.89;100.00
13695;BME280;6919;52.344;14.518;2023-05-10T03:06:20;100439.44;;;9.87;100.00
13695;BME280;6919;52.344;14.518;2023-05-10T03:08:48;100435.53;;;9.81;100.00
13695;BME280;6919;52.344;14.518;2023-05-10T03:11:37;100435.16;;;9.76;100.00
13695;BME280;6919;52.344;14.518;2023-05-10T03:14:21;100432.69;;;9.83;100.00
13695;BME280;6919;52.344;14.518;2023-05-10T03:17:00;100435.88;;;9.78;100.00
13695;BME280;6919;52.344;14.518;2023-05-10T03:19:41;100433.91;;;9.88;100.00
13695;BME280;6919;52.344;14.518;2023-05-10T03:22:13;100426.53;;;9.82;100.00
13695;BME280;6919;52.344;14.518;2023-05-10T03:24:47;100429.25;;;9.73;100.00
13695;BME280;6919;52.344;14.518;2023-05-10T03:27:17;100423.22;;;9.71;100.00
13695;BME280;6919;52.344;14.518;2023-05-10T03:29:47;100418.09;;;9.77;100.00
13695;BME280;6919;52.344;14.518;2023-05-10T03:32:17;100423.59;;;9.76;100.00
13695;BME280;6919;52.344;14.518;2023-05-10T03:34:46;100427.19;;;9.84;100.00
13695;BME280;6919;52.344;14.518;2023-05-10T03:37:15;100434.16;;;9.77;100.00
13695;BME280;6919;52.344;14.518;2023-05-10T03:39:43;100428.81;;;9.77;100.00
13695;BME280;6919;52.344;14.518;2023-05-10T03:42:12;100426.69;;;9.81;100.00
13695;BME280;6919;52.344;14.518;2023-05-10T03:44:40;100433.50;;;9.75;100.00
13695;BME280;6919;52.344;14.518;2023-05-10T03:47:09;100431.19;;;9.80;100.00
13695;BME280;6919;52.344;14.518;2023-05-10T03:49:37;100432.19;;;9.79;100.00
13695;BME280;6919;52.344;14.518;2023-05-10T03:52:07;100421.53;;;9.87;100.00
13695;BME280;6919;52.344;14.518;2023-05-10T03:54:36;100431.34;;;9.96;100.00
13695;BME280;6919;52.344;14.518;2023-05-10T03:57:04;100418.78;;;9.97;100.00
13695;BME280;6919;52.344;14.518;2023-05-10T03:59:33;100430.69;;;10.02;100.00
13695;BME280;6919;52.344;14.518;2023-05-10T04:02:01;100423.38;;;10.04;100.00
13695;BME280;6919;52.344;14.518;2023-05-10T04:04:29;100418.16;;;10.20;100.00
13695;BME280;6919;52.344;14.518;2023-05-10T04:06:58;100428.78;;;10.30;100.00
13695;BME280;6919;52.344;14.518;2023-05-10T04:09:28;100420.34;;;10.42;100.00
13695;BME280;6919;52.344;14.518;2023-05-10T04:11:56;100422.72;;;10.45;100.00
13695;BME280;6919;52.344;14.518;2023-05-10T04:14:26;100423.56;;;10.54;100.00
13695;BME280;6919;52.344;14.518;2023-05-10T04:16:55;100422.47;;;10.64;100.00
13695;BME280;6919;52.344;14.518;2023-05-10T04:19:23;100421.25;;;10.84;100.00
13695;BME280;6919;52.344;14.518;2023-05-10T04:21:52;100422.38;;;10.82;100.00
13695;BME280;6919;52.344;14.518;2023-05-10T04:24:21;100424.78;;;10.93;100.00
13695;BME280;6919;52.344;14.518;2023-05-10T04:26:50;100431.53;;;10.97;100.00
13695;BME280;6919;52.344;14.518;2023-05-10T04:29:20;100416.78;;;11.01;100.00
13695;BME280;6919;52.344;14.518;2023-05-10T04:31:48;100426.69;;;11.08;100.00
13695;BME280;6919;52.344;14.518;2023-05-10T04:34:18;100423.09;;;11.25;100.00
13695;BME280;6919;52.344;14.518;2023-05-10T04:36:48;100428.19;;;11.44;100.00
13695;BME280;6919;52.344;14.518;2023-05-10T04:39:17;100425.00;;;11.49;100.00
13695;BME280;6919;52.344;14.518;2023-05-10T04:41:46;100418.66;;;11.58;100.00
13695;BME280;6919;52.344;14.518;2023-05-10T04:44:16;100420.66;;;11.56;100.00
13695;BME280;6919;52.344;14.518;2023-05-10T04:46:45;100423.56;;;11.70;100.00
13695;BME280;6919;52.344;14.518;2023-05-10T04:49:15;100418.03;;;11.80;100.00
13695;BME280;6919;52.344;14.518;2023-05-10T04:51:43;100424.25;;;11.88;100.00
13695;BME280;6919;52.344;14.518;2023-05-10T04:54:12;100418.56;;;12.00;100.00
13695;BME280;6919;52.344;14.518;2023-05-10T04:56:40;100419.72;;;12.13;100.00
13695;BME280;6919;52.344;14.518;2023-05-10T04:59:09;100421.88;;;12.26;100.00
13695;BME280;6919;52.344;14.518;2023-05-10T05:01:40;100418.19;;;12.43;100.00
13695;BME280;6919;52.344;14.518;2023-05-10T05:04:08;100421.56;;;12.37;98.22
13695;BME280;6919;52.344;14.518;2023-05-10T05:06:37;100414.66;;;12.50;100.00
13695;BME280;6919;52.344;14.518;2023-05-10T05:09:05;100421.34;;;12.70;96.71
13695;BME280;6919;52.344;14.518;2023-05-10T05:11:34;100423.84;;;12.72;94.80
13695;BME280;6919;52.344;14.518;2023-05-10T05:14:02;100416.28;;;12.75;97.16
13695;BME280;6919;52.344;14.518;2023-05-10T05:16:31;100414.09;;;12.79;96.89
13695;BME280;6919;52.344;14.518;2023-05-10T05:19:01;100413.53;;;12.99;93.68
13695;BME280;6919;52.344;14.518;2023-05-10T05:21:30;100418.56;;;13.02;94.63
13695;BME280;6919;52.344;14.518;2023-05-10T05:23:59;100415.28;;;13.23;94.40
13695;BME280;6919;52.344;14.518;2023-05-10T05:26:28;100417.41;;;13.35;88.67
13695;BME280;6919;52.344;14.518;2023-05-10T05:28:56;100414.06;;;13.25;90.18
13695;BME280;6919;52.344;14.518;2023-05-10T05:31:25;100418.22;;;13.66;90.57
13695;BME280;6919;52.344;14.518;2023-05-10T05:33:54;100413.56;;;13.83;85.62
13695;BME280;6919;52.344;14.518;2023-05-10T05:36:24;100416.94;;;13.85;83.16
13695;BME280;6919;52.344;14.518;2023-05-10T05:38:52;100413.06;;;14.02;80.60
13695;BME280;6919;52.344;14.518;2023-05-10T05:41:20;100412.69;;;13.90;85.08
13695;BME280;6919;52.344;14.518;2023-05-10T05:43:50;100412.88;;;14.03;81.51
13695;BME280;6919;52.344;14.518;2023-05-10T05:46:19;100410.72;;;14.21;80.47
13695;BME280;6919;52.344;14.518;2023-05-10T05:48:49;100413.50;;;14.13;82.96
13695;BME280;6919;52.344;14.518;2023-05-10T05:51:17;100414.25;;;14.44;77.23
13695;BME280;6919;52.344;14.518;2023-05-10T05:53:47;100408.59;;;14.54;75.84
13695;BME280;6919;52.344;14.518;2023-05-10T05:56:15;100409.78;;;14.66;74.65
13695;BME280;6919;52.344;14.518;2023-05-10T05:58:44;100408.88;;;14.73;74.44
13695;BME280;6919;52.344;14.518;2023-05-10T06:01:13;100411.59;;;14.88;72.17
13695;BME280;6919;52.344;14.518;2023-05-10T06:03:42;100415.88;;;14.83;75.28
13695;BME280;6919;52.344;14.518;2023-05-10T06:06:11;100413.44;;;15.02;73.90
13695;BME280;6919;52.344;14.518;2023-05-10T06:08:40;100416.41;;;15.07;74.86
13695;BME280;6919;52.344;14.518;2023-05-10T06:11:10;100419.41;;;15.41;70.63
13695;BME280;6919;52.344;14.518;2023-05-10T06:13:39;100416.31;;;15.30;70.24
13695;BME280;6919;52.344;14.518;2023-05-10T06:16:07;100415.38;;;15.73;67.64
13695;BME280;6919;52.344;14.518;2023-05-10T06:18:36;100414.69;;;15.85;65.21
13695;BME280;6919;52.344;14.518;2023-05-10T06:21:05;100419.53;;;15.54;66.00
13695;BME280;6919;52.344;14.518;2023-05-10T06:23:33;100417.94;;;15.60;68.04
13695;BME280;6919;52.344;14.518;2023-05-10T06:26:02;100410.88;;;15.80;66.78
13695;BME280;6919;52.344;14.518;2023-05-10T06:28:33;100415.38;;;16.15;64.83
13695;BME280;6919;52.344;14.518;2023-05-10T06:31:03;100412.44;;;16.10;65.63
13695;BME280;6919;52.344;14.518;2023-05-10T06:33:32;100419.31;;;16.12;64.92
13695;BME280;6919;52.344;14.518;2023-05-10T06:36:01;100411.22;;;16.12;65.25
13695;BME280;6919;52.344;14.518;2023-05-10T06:38:30;100416.38;;;16.83;61.73
13695;BME280;6919;52.344;14.518;2023-05-10T06:40:58;100416.84;;;16.93;60.74
13695;BME280;6919;52.344;14.518;2023-05-10T06:43:27;100409.75;;;17.33;60.12
13695;BME280;6919;52.344;14.518;2023-05-10T06:45:58;100411.69;;;17.45;58.22
13695;BME280;6919;52.344;14.518;2023-05-10T06:48:26;100415.16;;;17.33;59.14
13695;BME280;6919;52.344;14.518;2023-05-10T06:50:55;100410.31;;;17.22;58.35
13695;BME280;6919;52.344;14.518;2023-05-10T06:53:24;100406.28;;;17.45;57.48
13695;BME280;6919;52.344;14.518;2023-05-10T06:55:52;100409.53;;;17.82;57.29
13695;BME280;6919;52.344;14.518;2023-05-10T06:58:21;100409.47;;;17.62;54.40
13695;BME280;6919;52.344;14.518;2023-05-10T07:00:50;100406.53;;;17.51;55.82
13695;BME280;6919;52.344;14.518;2023-05-10T07:03:20;100401.31;;;17.49;55.81
13695;BME280;6919;52.344;14.518;2023-05-10T07:05:49;100410.75;;;17.79;57.04
13695;BME280;6919;52.344;14.518;2023-05-10T07:08:17;100407.03;;;17.93;53.46
13695;BME280;6919;52.344;14.518;2023-05-10T07:10:46;100403.94;;;18.29;53.80
13695;BME280;6919;52.344;14.518;2023-05-10T07:13:15;100403.50;;;18.06;54.30
13695;BME280;6919;52.344;14.518;2023-05-10T07:15:44;100402.06;;;18.10;55.18
13695;BME280;6919;52.344;14.518;2023-05-10T07:18:12;100404.59;;;18.37;53.66
13695;BME280;6919;52.344;14.518;2023-05-10T07:20:42;100400.22;;;18.36;52.12
13695;BME280;6919;52.344;14.518;2023-05-10T07:23:11;100396.22;;;18.00;53.97
13695;BME280;6919;52.344;14.518;2023-05-10T07:25:40;100391.63;;;18.33;53.79
13695;BME280;6919;52.344;14.518;2023-05-10T07:28:08;100391.00;;;18.18;54.28
13695;BME280;6919;52.344;14.518;2023-05-10T07:30:37;100383.69;;;18.64;52.82
13695;BME280;6919;52.344;14.518;2023-05-10T07:33:05;100397.72;;;18.54;53.20
13695;BME280;6919;52.344;14.518;2023-05-10T07:35:34;100386.03;;;19.30;52.12
13695;BME280;6919;52.344;14.518;2023-05-10T07:38:04;100395.53;;;18.95;51.98
13695;BME280;6919;52.344;14.518;2023-05-10T07:40:33;100387.56;;;19.07;50.96
13695;BME280;6919;52.344;14.518;2023-05-10T07:43:02;100385.84;;;19.25;49.95
13695;BME280;6919;52.344;14.518;2023-05-10T07:45:30;100374.63;;;19.53;50.77
13695;BME280;6919;52.344;14.518;2023-05-10T07:47:59;100382.41;;;19.80;49.56
13695;BME280;6919;52.344;14.518;2023-05-10T07:50:28;100380.69;;;19.86;48.23
13695;BME280;6919;52.344;14.518;2023-05-10T07:52:57;100372.78;;;19.47;47.24
13695;BME280;6919;52.344;14.518;2023-05-10T07:55:27;100377.78;;;19.50;49.25
13695;BME280;6919;52.344;14.518;2023-05-10T07:57:56;100370.81;;;19.10;49.49
13695;BME280;6919;52.344;14.518;2023-05-10T08:00:28;100368.69;;;19.25;49.95
13695;BME280;6919;52.344;14.518;2023-05-10T08:02:56;100369.31;;;19.20;50.92
13695;BME280;6919;52.344;14.518;2023-05-10T08:05:25;100359.38;;;19.52;49.22
13695;BME280;6919;52.344;14.518;2023-05-10T08:07:54;100362.78;;;19.72;47.51
13695;BME280;6919;52.344;14.518;2023-05-10T08:10:24;100351.91;;;20.03;46.72
13695;BME280;6919;52.344;14.518;2023-05-10T08:12:54;100357.28;;;19.85;47.28
13695;BME280;6919;52.344;14.518;2023-05-10T08:15:22;100351.88;;;20.34;47.48
13695;BME280;6919;52.344;14.518;2023-05-10T08:17:52;100371.69;;;20.23;46.25
13695;BME280;6919;52.344;14.518;2023-05-10T08:20:20;100359.06;;;19.66;47.90
13695;BME280;6919;52.344;14.518;2023-05-10T08:22:49;100372.31;;;19.87;46.59
13695;BME280;6919;52.344;14.518;2023-05-10T08:25:18;100370.06;;;19.84;45.37
13695;BME280;6919;52.344;14.518;2023-05-10T08:27:46;100367.19;;;20.04;45.88
13695;BME280;6919;52.344;14.518;2023-05-10T08:30:16;100373.25;;;20.06;47.08
13695;BME280;6919;52.344;14.518;2023-05-10T08:32:44;100368.44;;;20.01;47.74
13695;BME280;6919;52.344;14.518;2023-05-10T08:35:13;100365.28;;;19.73;47.24
13695;BME280;6919;52.344;14.518;2023-05-10T08:37:42;100369.69;;;20.55;45.56
13695;BME280;6919;52.344;14.518;2023-05-10T08:40:12;100375.44;;;20.71;43.78
13695;BME280;6919;52.344;14.518;2023-05-10T08:42:47;100371.84;;;20.53;45.10
13695;BME280;6919;52.344;14.518;2023-05-10T08:45:24;100375.28;;;20.84;44.47
13695;BME280;6919;52.344;14.518;2023-05-10T08:47:54;100382.84;;;20.40;44.07
13695;BME280;6919;52.344;14.518;2023-05-10T08:50:24;100381.63;;;20.36;44.10
13695;BME280;6919;52.344;14.518;2023-05-10T08:52:57;100382.75;;;19.97;46.09
13695;BME280;6919;52.344;14.518;2023-05-10T08:55:28;100383.50;;;20.35;45.52
13695;BME280;6919;52.344;14.518;2023-05-10T08:57:57;100383.88;;;20.63;46.02
13695;BME280;6919;52.344;14.518;2023-05-10T09:00:28;100392.56;;;20.54;44.60
13695;BME280;6919;52.344;14.518;2023-05-10T09:02:57;100375.72;;;20.14;45.56
13695;BME280;6919;52.344;14.518;2023-05-10T09:05:26;100380.13;;;20.15;45.80
13695;BME280;6919;52.344;14.518;2023-05-10T09:07:55;100375.16;;;19.74;47.76
13695;BME280;6919;52.344;14.518;2023-05-10T09:10:26;100381.91;;;19.96;48.36
13695;BME280;6919;52.344;14.518;2023-05-10T09:12:57;100390.53;;;20.25;46.87
13695;BME280;6919;52.344;14.518;2023-05-10T09:15:27;100373.72;;;20.52;45.47
13695;BME280;6919;52.344;14.518;2023-05-10T09:17:55;100390.63;;;20.36;46.04
13695;BME280;6919;52.344;14.518;2023-05-10T09:20:25;100380.13;;;20.64;44.81
13695;BME280;6919;52.344;14.518;2023-05-10T09:22:54;100382.50;;;20.54;45.06
13695;BME280;6919;52.344;14.518;2023-05-10T09:25:22;100376.84;;;20.56;45.69
13695;BME280;6919;52.344;14.518;2023-05-10T09:27:52;100381.69;;;20.72;44.78
13695;BME280;6919;52.344;14.518;2023-05-10T09:30:27;100379.16;;;20.52;45.46
13695;BME280;6919;52.344;14.518;2023-05-10T09:32:57;100374.72;;;20.58;45.64
13695;BME280;6919;52.344;14.518;2023-05-10T09:35:28;100370.78;;;21.14;44.63
13695;BME280;6919;52.344;14.518;2023-05-10T09:38:02;100377.44;;;21.18;43.58
13695;BME280;6919;52.344;14.518;2023-05-10T09:40:31;100375.53;;;21.01;43.34
13695;BME280;6919;52.344;14.518;2023-05-10T09:43:03;100367.13;;;21.20;43.92
13695;BME280;6919;52.344;14.518;2023-05-10T09:45:35;100380.94;;;20.83;44.14
13695;BME280;6919;52.344;14.518;2023-05-10T09:48:06;100375.06;;;20.86;45.03
13695;BME280;6919;52.344;14.518;2023-05-10T09:50:34;100384.97;;;20.80;44.76
13695;BME280;6919;52.344;14.518;2023-05-10T09:53:04;100382.78;;;20.89;44.44
13695;BME280;6919;52.344;14.518;2023-05-10T09:55:41;100364.28;;;20.73;44.45
13695;BME280;6919;52.344;14.518;2023-05-10T09:58:12;100380.13;;;20.82;44.92
13695;BME280;6919;52.344;14.518;2023-05-10T10:00:45;100374.41;;;20.66;44.14
13695;BME280;6919;52.344;14.518;2023-05-10T10:03:21;100366.59;;;21.12;43.88
13695;BME280;6919;52.344;14.518;2023-05-10T10:05:51;100375.78;;;21.17;43.25
13695;BME280;6919;52.344;14.518;2023-05-10T10:08:20;100381.38;;;21.04;42.62
13695;BME280;6919;52.344;14.518;2023-05-10T10:10:49;100379.88;;;21.08;43.80
13695;BME280;6919;52.344;14.518;2023-05-10T10:13:19;100362.66;;;21.26;42.34
13695;BME280;6919;52.344;14.518;2023-05-10T10:15:50;100365.69;;;21.65;44.72
13695;BME280;6919;52.344;14.518;2023-05-10T10:18:20;100367.50;;;22.01;42.75
13695;BME280;6919;52.344;14.518;2023-05-10T10:20:55;100358.84;;;22.15;41.93
13695;BME280;6919;52.344;14.518;2023-05-10T10:23:24;100370.84;;;21.44;43.01
13695;BME280;6919;52.344;14.518;2023-05-10T10:25:54;100364.53;;;21.43;42.22
13695;BME280;6919;52.344;14.518;2023-05-10T10:28:33;100358.28;;;21.72;43.18
13695;BME280;6919;52.344;14.518;2023-05-10T10:31:24;100358.69;;;21.69;42.76
13695;BME280;6919;52.344;14.518;2023-05-10T10:34:01;100363.53;;;21.85;41.72
13695;BME280;6919;52.344;14.518;2023-05-10T10:36:31;100364.38;;;21.68;41.26
13695;BME280;6919;52.344;14.518;2023-05-10T10:39:02;100362.34;;;21.81;41.93
13695;BME280;6919;52.344;14.518;2023-05-10T10:41:39;100367.94;;;21.86;40.76
13695;BME280;6919;52.344;14.518;2023-05-10T10:44:26;100359.75;;;21.86;40.57
13695;BME280;6919;52.344;14.518;2023-05-10T10:47:05;100358.66;;;21.87;40.74
13695;BME280;6919;52.344;14.518;2023-05-10T10:49:43;100354.56;;;21.96;43.00
13695;BME280;6919;52.344;14.518;2023-05-10T10:52:25;100365.19;;;21.86;41.30
13695;BME280;6919;52.344;14.518;2023-05-10T10:55:03;100356.38;;;21.73;42.14
13695;BME280;6919;52.344;14.518;2023-05-10T10:57:43;100354.81;;;22.06;42.31
13695;BME280;6919;52.344;14.518;2023-05-10T11:00:24;100359.56;;;22.22;41.61
13695;BME280;6919;52.344;14.518;2023-05-10T11:02:58;100361.00;;;22.13;40.98
13695;BME280;6919;52.344;14.518;2023-05-10T11:05:45;100360.66;;;21.80;40.81
13695;BME280;6919;52.344;14.518;2023-05-10T11:08:20;100362.06;;;22.24;41.81
13695;BME280;6919;52.344;14.518;2023-05-10T11:11:06;100346.34;;;21.96;40.62
13695;BME280;6919;52.344;14.518;2023-05-10T11:13:39;100348.41;;;22.24;41.45
13695;BME280;6919;52.344;14.518;2023-05-10T11:16:17;100359.81;;;22.09;40.25
13695;BME280;6919;52.344;14.518;2023-05-10T11:18:58;100347.72;;;22.28;40.71
13695;BME280;6919;52.344;14.518;2023-05-10T11:21:29;100346.69;;;22.52;40.67
13695;BME280;6919;52.344;14.518;2023-05-10T11:24:00;100348.44;;;22.47;40.96
13695;BME280;6919;52.344;14.518;2023-05-10T11:26:35;100350.84;;;22.66;41.10
13695;BME280;6919;52.344;14.518;2023-05-10T11:29:04;100338.81;;;22.33;41.56
13695;BME280;6919;52.344;14.518;2023-05-10T11:31:33;100341.56;;;22.79;40.73
13695;BME280;6919;52.344;14.518;2023-05-10T11:34:03;100348.75;;;23.08;41.44
13695;BME280;6919;52.344;14.518;2023-05-10T11:36:34;100351.78;;;22.49;39.52
13695;BME280;6919;52.344;14.518;2023-05-10T11:39:04;100347.50;;;22.53;40.14
13695;BME280;6919;52.344;14.518;2023-05-10T11:41:33;100354.78;;;22.82;40.76
13695;BME280;6919;52.344;14.518;2023-05-10T11:44:02;100346.91;;;22.74;41.16
13695;BME280;6919;52.344;14.518;2023-05-10T11:46:30;100346.50;;;23.17;40.66
13695;BME280;6919;52.344;14.518;2023-05-10T11:49:02;100348.84;;;23.13;40.12
13695;BME280;6919;52.344;14.518;2023-05-10T11:51:34;100351.56;;;23.36;39.68
13695;BME280;6919;52.344;14.518;2023-05-10T11:54:07;100348.63;;;23.15;39.98
13695;BME280;6919;52.344;14.518;2023-05-10T11:56:40;100347.91;;;23.08;39.10
13695;BME280;6919;52.344;14.518;2023-05-10T11:59:09;100346.09;;;23.36;40.10
13695;BME280;6919;52.344;14.518;2023-05-10T12:01:37;100343.50;;;23.18;39.87
13695;BME280;6919;52.344;14.518;2023-05-10T12:04:07;100358.06;;;23.07;39.66
13695;BME280;6919;52.344;14.518;2023-05-10T12:06:40;100352.22;;;23.04;39.43
13695;BME280;6919;52.344;14.518;2023-05-10T12:09:09;100350.53;;;23.26;41.08
13695;BME280;6919;52.344;14.518;2023-05-10T12:11:40;100361.59;;;23.31;39.16
13695;BME280;6919;52.344;14.518;2023-05-10T12:14:11;100344.75;;;23.50;39.21
13695;BME280;6919;52.344;14.518;2023-05-10T12:16:39;100358.94;;;23.36;38.99
13695;BME280;6919;52.344;14.518;2023-05-10T12:19:10;100348.00;;;23.64;38.24
13695;BME280;6919;52.344;14.518;2023-05-10T12:21:39;100352.34;;;23.76;38.42
13695;BME280;6919;52.344;14.518;2023-05-10T12:24:08;100362.09;;;23.56;38.21
13695;BME280;6919;52.344;14.518;2023-05-10T12:26:37;100356.13;;;23.87;38.00
13695;BME280;6919;52.344;14.518;2023-05-10T12:29:14;100356.56;;;23.67;37.34
13695;BME280;6919;52.344;14.518;2023-05-10T12:31:59;100346.97;;;24.09;37.97
13695;BME280;6919;52.344;14.518;2023-05-10T12:34:32;100365.75;;;23.89;37.83
13695;BME280;6919;52.344;14.518;2023-05-10T12:37:02;100357.69;;;24.27;37.28
13695;BME280;6919;52.344;14.518;2023-05-10T12:39:48;100356.25;;;24.25;38.11
13695;BME280;6919;52.344;14.518;2023-05-10T12:42:17;100365.81;;;24.72;37.20
13695;BME280;6919;52.344;14.518;2023-05-10T12:44:45;100362.84;;;24.95;35.65
13695;BME280;6919;52.344;14.518;2023-05-10T12:47:14;100362.63;;;25.39;36.01
13695;BME280;6919;52.344;14.518;2023-05-10T12:49:44;100361.53;;;26.10;35.48
13695;BME280;6919;52.344;14.518;2023-05-10T12:52:12;100358.41;;;26.65;32.93
13695;BME280;6919;52.344;14.518;2023-05-10T12:54:41;100358.44;;;27.21;33.12
13695;BME280;6919;52.344;14.518;2023-05-10T12:57:09;100357.59;;;26.33;32.83
13695;BME280;6919;52.344;14.518;2023-05-10T12:59:38;100370.56;;;26.37;33.37
13695;BME280;6919;52.344;14.518;2023-05-10T13:02:07;100362.75;;;26.97;32.57
13695;BME280;6919;52.344;14.518;2023-05-10T13:04:35;100373.50;;;27.50;32.25
13695;BME280;6919;52.344;14.518;2023-05-10T13:07:08;100373.53;;;27.09;33.39